createdAt,value
2022-10-12T00:03:08.431Z,92.49
2022-10-12T00:12:41.969Z,92.69
2022-10-12T00:22:17.056Z,92.81
2022-10-12T00:31:48.948Z,94.01
2022-10-12T00:41:22.007Z,94.67
2022-10-12T00:50:57.571Z,94.22
2022-10-12T01:00:31.377Z,94.66
2022-10-12T01:10:04.649Z,94.42
2022-10-12T01:19:36.112Z,94.35
2022-10-12T01:29:11.490Z,94.71
2022-10-12T01:38:43.985Z,95.19
2022-10-12T01:48:19.960Z,95.67
2022-10-12T01:57:51.560Z,95.80
2022-10-12T02:07:25.471Z,96.24
2022-10-12T02:16:58.921Z,95.96
2022-10-12T02:26:32.716Z,96.47
2022-10-12T02:36:06.462Z,97.32
2022-10-12T02:45:42.259Z,97.50
2022-10-12T02:55:17.079Z,97.21
2022-10-12T03:04:49.469Z,97.15
2022-10-12T03:14:21.942Z,97.25
2022-10-12T03:23:57.219Z,97.53
2022-10-12T03:33:29.021Z,97.28
2022-10-12T03:43:02.830Z,97.25
2022-10-12T03:52:38.365Z,97.28
2022-10-12T04:02:14.411Z,97.59
2022-10-12T04:11:46.311Z,98.34
2022-10-12T04:21:18.503Z,98.34
2022-10-12T04:30:53.740Z,98.24
2022-10-12T04:40:27.111Z,97.72
2022-10-12T04:50:00.017Z,97.76
2022-10-12T04:59:32.655Z,97.81
2022-10-12T05:09:07.542Z,98.27
2022-10-12T05:18:40.669Z,98.66
2022-10-12T05:28:14.459Z,98.92
2022-10-12T05:37:46.131Z,98.46
2022-10-12T05:47:21.069Z,98.38
2022-10-12T05:56:54.886Z,99.00
2022-10-12T06:06:27.129Z,99.69
2022-10-12T06:16:00.795Z,100.00
2022-10-12T06:25:34.986Z,100.00
2022-10-12T06:35:09.293Z,100.00
2022-10-12T06:44:44.807Z,100.00
2022-10-12T06:54:16.958Z,100.00
2022-10-12T07:03:51.105Z,100.00
2022-10-12T07:13:26.411Z,100.00
2022-10-12T07:23:00.001Z,100.00
2022-10-12T07:32:33.644Z,100.00
2022-10-12T07:42:07.827Z,100.00
2022-10-12T07:51:40.246Z,100.00
2022-10-12T08:01:16.464Z,100.00
2022-10-12T08:10:49.243Z,100.00
2022-10-12T08:20:25.181Z,100.00
2022-10-12T08:29:59.621Z,100.00
2022-10-12T08:39:34.341Z,100.00
2022-10-12T08:49:09.140Z,100.00
2022-10-12T08:58:42.477Z,100.00
2022-10-12T08:59:45.040Z,99.98
2022-10-12T09:09:21.004Z,96.86
2022-10-12T09:10:24.911Z,94.57
2022-10-12T09:19:57.073Z,93.99
2022-10-12T09:21:01.142Z,94.14
2022-10-12T09:22:05.166Z,92.36
2022-10-12T09:23:09.097Z,92.43
2022-10-12T09:24:11.428Z,92.31
2022-10-12T09:25:13.958Z,91.48
2022-10-12T09:26:17.299Z,91.80
2022-10-12T09:35:49.294Z,90.36
2022-10-12T09:36:53.469Z,91.22
2022-10-12T09:37:55.809Z,87.80
2022-10-12T09:38:58.318Z,87.58
2022-10-12T09:40:02.470Z,88.14
2022-10-12T09:41:06.426Z,88.48
2022-10-12T09:42:10.467Z,88.32
2022-10-12T09:43:12.875Z,87.51
2022-10-12T09:44:17.375Z,87.40
2022-10-12T09:45:19.760Z,86.22
2022-10-12T09:46:22.308Z,86.31
2022-10-12T09:47:24.740Z,86.51
2022-10-12T09:48:28.849Z,86.87
2022-10-12T09:49:32.930Z,86.26
2022-10-12T09:50:36.869Z,85.29
2022-10-12T09:51:39.249Z,85.34
2022-10-12T09:52:42.686Z,84.97
2022-10-12T09:53:45.114Z,85.76
2022-10-12T09:54:47.668Z,83.29
2022-10-12T09:55:50.084Z,83.87
2022-10-12T09:56:54.623Z,84.16
2022-10-12T09:57:57.018Z,83.50
2022-10-12T09:58:59.618Z,83.88
2022-10-12T10:00:02.174Z,83.92
2022-10-12T10:01:04.649Z,84.20
2022-10-12T10:02:08.656Z,83.75
2022-10-12T10:03:12.705Z,82.99
2022-10-12T10:04:16.555Z,83.30
2022-10-12T10:05:18.897Z,82.31
2022-10-12T10:06:23.134Z,83.21
2022-10-12T10:07:25.493Z,80.76
2022-10-12T10:08:27.916Z,80.28
2022-10-12T10:09:30.383Z,79.60
2022-10-12T10:10:32.865Z,79.74
2022-10-12T10:11:36.955Z,81.25
2022-10-12T10:12:39.295Z,81.67
2022-10-12T10:13:41.725Z,81.99
2022-10-12T10:14:44.203Z,82.16
2022-10-12T10:15:48.333Z,81.78
2022-10-12T10:16:52.186Z,80.51
2022-10-12T10:17:56.113Z,80.91
2022-10-12T10:18:58.481Z,80.72
2022-10-12T10:20:00.932Z,81.29
2022-10-12T10:21:04.954Z,80.67
2022-10-12T10:22:08.874Z,81.40
2022-10-12T10:23:11.229Z,81.50
2022-10-12T10:24:15.358Z,79.71
2022-10-12T10:25:19.387Z,80.46
2022-10-12T10:26:23.341Z,79.97
2022-10-12T10:27:25.621Z,79.59
2022-10-12T10:28:29.776Z,77.62
2022-10-12T10:29:37.698Z,79.32
2022-10-12T10:30:43.000Z,80.08
2022-10-12T10:31:45.143Z,79.78
2022-10-12T10:32:47.552Z,79.04
2022-10-12T10:33:50.088Z,77.36
2022-10-12T10:34:54.100Z,76.83
2022-10-12T10:35:56.403Z,76.27
2022-10-12T10:36:58.890Z,77.06
2022-10-12T10:38:01.573Z,78.16
2022-10-12T10:39:04.027Z,78.64
2022-10-12T10:40:06.526Z,78.53
2022-10-12T10:41:08.975Z,77.80
2022-10-12T10:42:11.450Z,78.40
2022-10-12T10:43:15.849Z,79.45
2022-10-12T10:44:21.698Z,77.87
2022-10-12T10:45:22.223Z,76.95
2022-10-12T10:46:26.178Z,77.92
2022-10-12T10:47:28.466Z,78.18
2022-10-12T10:48:30.970Z,77.06
2022-10-12T10:49:33.432Z,78.56
2022-10-12T10:50:35.869Z,78.70
2022-10-12T11:00:37.727Z,78.72
2022-10-12T11:01:12.560Z,79.12
2022-10-12T11:02:16.574Z,78.96
2022-10-12T11:03:18.933Z,76.99
2022-10-12T11:04:21.409Z,76.91
2022-10-12T11:05:23.924Z,76.76
2022-10-12T11:06:27.981Z,75.05
2022-10-12T11:07:30.364Z,75.68
2022-10-12T11:08:32.895Z,76.87
2022-10-12T11:09:35.268Z,76.63
2022-10-12T11:10:37.811Z,76.37
2022-10-12T11:11:41.825Z,75.59
2022-10-12T11:12:44.151Z,75.54
2022-10-12T11:13:47.615Z,75.44
2022-10-12T11:14:51.647Z,75.00
2022-10-12T11:15:53.958Z,75.01
2022-10-12T11:16:56.464Z,75.15
2022-10-12T11:17:58.959Z,74.46
2022-10-12T11:19:03.038Z,74.22
2022-10-12T11:20:06.932Z,74.34
2022-10-12T11:21:09.396Z,74.07
2022-10-12T11:22:11.885Z,73.28
2022-10-12T11:23:15.926Z,74.49
2022-10-12T11:24:18.407Z,74.23
2022-10-12T11:25:22.384Z,73.56
2022-10-12T11:26:24.760Z,75.00
2022-10-12T11:27:27.140Z,74.08
2022-10-12T11:28:31.317Z,75.00
2022-10-12T11:29:33.562Z,74.67
2022-10-12T11:30:36.043Z,73.66
2022-10-12T11:31:40.269Z,74.35
2022-10-12T11:32:42.515Z,73.62
2022-10-12T11:42:21.660Z,73.73
2022-10-12T11:43:18.852Z,74.67
2022-10-12T11:44:26.435Z,73.40
2022-10-12T11:45:26.751Z,74.03
2022-10-12T11:46:30.729Z,74.41
2022-10-12T11:47:33.080Z,73.86
2022-10-12T11:48:37.141Z,73.59
2022-10-12T11:49:39.527Z,72.85
2022-10-12T11:50:41.979Z,73.50
2022-10-12T11:51:44.552Z,73.04
2022-10-12T11:52:48.604Z,72.58
2022-10-12T11:53:51.104Z,73.51
2022-10-12T11:54:55.129Z,71.99
2022-10-12T11:55:59.096Z,72.54
2022-10-12T11:57:01.438Z,73.79
2022-10-12T11:58:05.635Z,72.54
2022-10-12T11:59:06.434Z,71.32
2022-10-12T12:00:10.439Z,71.75
2022-10-12T12:01:12.829Z,72.37
2022-10-12T12:02:16.958Z,73.81
2022-10-12T12:03:20.970Z,72.17
2022-10-12T12:05:28.858Z,72.41
2022-10-12T12:06:31.307Z,71.82
2022-10-12T12:07:33.803Z,72.35
2022-10-12T12:08:37.885Z,71.54
2022-10-12T12:09:40.489Z,72.37
2022-10-12T12:10:44.383Z,72.35
2022-10-12T12:11:48.352Z,71.47
2022-10-12T12:12:50.649Z,70.87
2022-10-12T12:13:54.767Z,71.29
2022-10-12T12:14:58.706Z,70.96
2022-10-12T12:16:01.070Z,71.87
2022-10-12T12:17:03.533Z,71.47
2022-10-12T12:18:07.541Z,70.72
2022-10-12T12:19:09.954Z,70.68
2022-10-12T12:20:14.029Z,71.92
2022-10-12T12:21:17.944Z,71.35
2022-10-12T12:22:21.900Z,71.04
2022-10-12T12:23:24.305Z,70.37
2022-10-12T12:24:28.484Z,70.71
2022-10-12T12:25:33.488Z,70.26
2022-10-12T12:26:37.386Z,70.12
2022-10-12T12:27:41.338Z,70.12
2022-10-12T12:28:45.316Z,70.50
2022-10-12T12:29:47.640Z,71.09
2022-10-12T12:30:51.673Z,70.79
2022-10-12T12:31:54.028Z,70.26
2022-10-12T12:32:58.024Z,70.59
2022-10-12T12:34:00.416Z,70.21
2022-10-12T12:35:04.506Z,69.37
2022-10-12T12:36:08.434Z,69.21
2022-10-12T12:37:12.377Z,70.46
2022-10-12T12:38:14.641Z,70.79
2022-10-12T12:39:17.158Z,70.16
2022-10-12T12:40:21.269Z,69.57
2022-10-12T12:41:25.224Z,70.10
2022-10-12T12:42:27.517Z,69.82
2022-10-12T12:43:30.029Z,69.62
2022-10-12T12:44:32.475Z,71.09
2022-10-12T12:45:34.929Z,69.57
2022-10-12T12:46:38.987Z,69.75
2022-10-12T12:47:46.071Z,70.76
2022-10-12T12:48:43.879Z,70.92
2022-10-12T12:49:46.405Z,70.45
2022-10-12T12:50:51.689Z,72.26
2022-10-12T12:51:53.930Z,69.11
2022-10-12T12:52:56.405Z,68.98
2022-10-12T12:53:58.976Z,69.77
2022-10-12T12:55:01.576Z,69.88
2022-10-12T12:56:05.664Z,69.61
2022-10-12T12:57:09.716Z,68.86
2022-10-12T12:58:13.725Z,70.23
2022-10-12T12:59:16.584Z,68.85
2022-10-12T13:00:20.780Z,68.62
2022-10-12T13:01:24.613Z,69.78
2022-10-12T13:02:28.518Z,70.72
2022-10-12T13:03:30.864Z,69.04
2022-10-12T13:04:35.134Z,69.96
2022-10-12T13:05:37.516Z,69.27
2022-10-12T13:06:40.137Z,68.08
2022-10-12T13:07:42.623Z,68.70
2022-10-12T13:08:45.079Z,69.46
2022-10-12T13:09:47.556Z,68.10
2022-10-12T13:10:50.062Z,68.97
2022-10-12T13:11:52.567Z,69.09
2022-10-12T13:12:56.631Z,69.24
2022-10-12T13:13:58.916Z,69.11
2022-10-12T13:15:01.404Z,68.69
2022-10-12T13:16:04.195Z,70.25
2022-10-12T13:17:32.074Z,69.24
2022-10-12T13:18:18.650Z,69.52
2022-10-12T13:19:13.222Z,69.34
2022-10-12T13:20:15.721Z,69.49
2022-10-12T13:21:18.130Z,69.25
2022-10-12T13:22:22.183Z,69.63
2022-10-12T13:23:26.134Z,70.98
2022-10-12T13:24:28.541Z,70.18
2022-10-12T13:25:31.031Z,68.67
2022-10-12T13:26:33.531Z,69.81
2022-10-12T13:27:36.284Z,69.89
2022-10-12T13:28:42.681Z,69.10
2022-10-12T13:29:46.597Z,70.65
2022-10-12T13:30:48.938Z,67.72
2022-10-12T13:31:51.381Z,67.83
2022-10-12T13:32:53.847Z,69.65
2022-10-12T13:33:56.381Z,69.77
2022-10-12T13:35:00.528Z,69.43
2022-10-12T13:36:02.828Z,68.62
2022-10-12T13:37:05.428Z,68.69
2022-10-12T13:38:07.779Z,68.95
2022-10-12T13:39:10.259Z,69.70
2022-10-12T13:40:12.714Z,69.36
2022-10-12T13:41:15.187Z,69.27
2022-10-12T13:42:17.652Z,69.77
2022-10-12T13:43:21.811Z,68.61
2022-10-12T13:44:24.129Z,68.72
2022-10-12T13:45:26.611Z,68.66
2022-10-12T13:46:30.648Z,68.54
2022-10-12T13:47:33.343Z,69.00
2022-10-12T13:49:41.054Z,68.56
2022-10-12T13:50:43.473Z,68.62
2022-10-12T13:51:45.932Z,68.67
2022-10-12T13:52:48.562Z,68.61
2022-10-12T13:53:51.032Z,69.05
2022-10-12T13:54:55.159Z,69.34
2022-10-12T13:56:00.095Z,69.30
2022-10-12T13:57:02.561Z,69.76
2022-10-12T13:58:06.540Z,71.24
2022-10-12T13:59:10.700Z,70.02
2022-10-12T14:00:12.944Z,71.21
2022-10-12T14:01:15.479Z,69.87
2022-10-12T14:02:17.881Z,68.79
2022-10-12T14:03:20.565Z,69.46
2022-10-12T14:04:23.007Z,70.21
2022-10-12T14:05:25.496Z,69.25
2022-10-12T14:06:27.964Z,69.83
2022-10-12T14:07:30.680Z,69.49
2022-10-12T14:08:32.933Z,68.52
2022-10-12T14:09:37.007Z,68.97
2022-10-12T14:10:39.479Z,70.16
2022-10-12T14:11:41.998Z,69.94
2022-10-12T14:12:44.477Z,69.59
2022-10-12T14:13:46.965Z,69.86
2022-10-12T14:14:51.005Z,69.77
2022-10-12T14:15:54.975Z,70.76
2022-10-12T14:16:58.936Z,70.75
2022-10-12T14:18:03.064Z,69.76
2022-10-12T14:19:06.970Z,69.40
2022-10-12T14:20:09.495Z,70.54
2022-10-12T14:21:11.896Z,69.32
2022-10-12T14:22:14.396Z,69.66
2022-10-12T14:23:18.451Z,69.44
2022-10-12T14:24:20.743Z,70.25
2022-10-12T14:25:24.891Z,69.69
2022-10-12T14:26:28.841Z,69.20
2022-10-12T14:27:31.199Z,68.72
2022-10-12T14:28:33.743Z,68.67
2022-10-12T14:29:36.136Z,69.29
2022-10-12T14:30:38.642Z,70.10
2022-10-12T14:31:42.722Z,71.84
2022-10-12T14:32:46.737Z,70.36
2022-10-12T14:33:49.045Z,70.13
2022-10-12T14:34:51.507Z,69.64
2022-10-12T14:35:55.595Z,69.92
2022-10-12T14:36:57.980Z,70.36
2022-10-12T14:38:00.515Z,69.97
2022-10-12T14:39:02.997Z,71.24
2022-10-12T14:40:07.113Z,71.39
2022-10-12T14:41:09.492Z,70.54
2022-10-12T14:42:11.941Z,71.78
2022-10-12T14:43:14.379Z,71.20
2022-10-12T14:44:18.440Z,71.76
2022-10-12T14:45:20.842Z,71.25
2022-10-12T14:46:24.957Z,71.72
2022-10-12T14:47:27.316Z,71.56
2022-10-12T14:48:29.781Z,70.09
2022-10-12T14:49:32.263Z,70.70
2022-10-12T14:50:36.353Z,70.67
2022-10-12T14:51:38.716Z,71.97
2022-10-12T14:52:42.867Z,72.41
2022-10-12T14:53:45.185Z,72.10
2022-10-12T14:54:47.711Z,73.75
2022-10-12T14:55:51.005Z,73.40
2022-10-12T14:56:52.683Z,73.04
2022-10-12T14:57:57.733Z,73.04
2022-10-12T14:59:01.659Z,74.04
2022-10-12T15:00:03.971Z,72.55
2022-10-12T15:01:08.043Z,70.73
2022-10-12T15:02:12.002Z,72.43
2022-10-12T15:03:14.306Z,72.37
2022-10-12T15:04:16.780Z,72.67
2022-10-12T15:05:19.334Z,72.52
2022-10-12T15:06:21.808Z,72.05
2022-10-12T15:07:25.877Z,72.86
2022-10-12T15:08:29.185Z,72.25
2022-10-12T15:09:31.610Z,71.95
2022-10-12T15:10:35.674Z,72.98
2022-10-12T15:11:39.615Z,73.75
2022-10-12T15:12:42.010Z,73.00
2022-10-12T15:13:44.426Z,73.89
2022-10-12T15:14:48.483Z,73.51
2022-10-12T15:15:52.444Z,74.32
2022-10-12T15:16:56.327Z,74.43
2022-10-12T15:17:58.727Z,72.97
2022-10-12T15:19:02.760Z,71.70
2022-10-12T15:20:05.099Z,71.76
2022-10-12T15:21:09.161Z,72.50
2022-10-12T15:22:13.117Z,73.55
2022-10-12T15:23:17.076Z,72.58
2022-10-12T15:24:21.048Z,73.79
2022-10-12T15:25:24.982Z,74.05
2022-10-12T15:26:28.969Z,74.22
2022-10-12T15:27:31.312Z,73.51
2022-10-12T15:28:35.413Z,71.99
2022-10-12T15:29:37.751Z,72.34
2022-10-12T15:30:57.948Z,72.93
2022-10-12T15:31:42.651Z,73.30
2022-10-12T15:32:45.160Z,73.18
2022-10-12T15:33:47.597Z,74.27
2022-10-12T15:34:50.130Z,74.26
2022-10-12T15:35:54.197Z,74.08
2022-10-12T15:36:58.137Z,74.53
2022-10-12T15:38:02.216Z,74.88
2022-10-12T15:39:06.102Z,74.53
2022-10-12T15:40:10.027Z,75.24
2022-10-12T15:41:12.402Z,75.60
2022-10-12T15:42:14.880Z,75.55
2022-10-12T15:43:18.970Z,75.75
2022-10-12T15:44:22.941Z,76.50
2022-10-12T15:45:25.259Z,76.81
2022-10-12T15:46:29.275Z,75.32
2022-10-12T15:47:34.202Z,76.01
2022-10-12T15:48:36.469Z,76.85
2022-10-12T15:49:38.953Z,76.22
2022-10-12T15:50:43.004Z,76.65
2022-10-12T15:51:46.928Z,76.90
2022-10-12T15:52:50.168Z,77.07
2022-10-12T15:53:54.227Z,75.58
2022-10-12T15:54:59.104Z,75.66
2022-10-12T15:56:02.936Z,76.26
2022-10-12T15:57:05.311Z,76.52
2022-10-12T15:58:07.752Z,76.79
2022-10-12T15:59:11.859Z,76.75
2022-10-12T16:00:15.999Z,76.70
2022-10-12T16:01:20.003Z,76.66
2022-10-12T16:02:22.218Z,77.13
2022-10-12T16:03:26.356Z,76.99
2022-10-12T16:04:27.172Z,77.52
2022-10-12T16:05:29.638Z,78.20
2022-10-12T16:06:33.678Z,78.53
2022-10-12T16:07:36.057Z,78.61
2022-10-12T16:08:40.120Z,78.50
2022-10-12T16:09:42.422Z,78.67
2022-10-12T16:10:46.515Z,78.90
2022-10-12T16:11:48.927Z,79.08
2022-10-12T16:12:51.405Z,79.14
2022-10-12T16:13:56.609Z,79.16
2022-10-12T16:14:57.929Z,79.35
2022-10-12T16:16:01.853Z,79.36
2022-10-12T16:17:05.786Z,79.41
2022-10-12T16:18:08.136Z,79.82
2022-10-12T16:19:12.127Z,80.19
2022-10-12T16:20:14.527Z,80.09
2022-10-12T16:21:17.005Z,80.30
2022-10-12T16:22:19.618Z,80.24
2022-10-12T16:23:22.191Z,80.39
2022-10-12T16:24:24.511Z,80.35
2022-10-12T16:25:27.207Z,80.54
2022-10-12T16:26:31.403Z,80.85
2022-10-12T16:27:35.345Z,81.29
2022-10-12T16:28:37.732Z,81.17
2022-10-12T16:29:40.122Z,81.31
2022-10-12T16:30:44.264Z,81.26
2022-10-12T16:31:48.196Z,81.21
2022-10-12T16:32:50.495Z,81.28
2022-10-12T16:33:54.671Z,81.51
2022-10-12T16:43:24.435Z,83.01
2022-10-12T16:52:58.371Z,84.46
2022-10-12T17:02:31.999Z,85.58
2022-10-12T17:12:05.819Z,86.94
2022-10-12T17:21:41.396Z,88.27
2022-10-12T17:31:13.478Z,89.34
2022-10-12T17:40:47.812Z,90.64
2022-10-12T17:50:21.931Z,91.84
2022-10-12T17:59:56.392Z,92.55
2022-10-12T18:09:30.514Z,93.15
2022-10-12T18:19:04.222Z,93.80
2022-10-12T18:28:38.602Z,94.23
2022-10-12T18:38:12.654Z,94.63
2022-10-12T18:47:46.633Z,94.23
2022-10-12T18:57:20.936Z,95.63
2022-10-12T19:06:58.030Z,95.67
2022-10-12T19:16:30.932Z,94.19
2022-10-12T19:26:03.109Z,95.36
2022-10-12T19:35:37.204Z,95.97
2022-10-12T19:45:11.036Z,96.47
2022-10-12T19:54:46.966Z,96.78
2022-10-12T19:55:50.910Z,96.65
2022-10-12T20:05:22.521Z,96.49
2022-10-12T20:14:57.941Z,97.42
2022-10-12T20:24:31.700Z,99.12
2022-10-12T20:34:04.355Z,99.97
2022-10-12T20:43:40.107Z,100.00
2022-10-12T20:53:13.730Z,99.56
2022-10-12T21:02:47.633Z,100.00
2022-10-12T21:12:20.547Z,100.00
2022-10-12T21:21:55.764Z,100.00
2022-10-12T21:31:32.178Z,100.00
2022-10-12T21:41:03.062Z,100.00
2022-10-12T21:50:35.112Z,99.85
2022-10-12T22:00:10.723Z,99.96
2022-10-12T22:09:44.427Z,100.00
2022-10-12T22:19:17.032Z,100.00
2022-10-12T22:28:50.986Z,100.00
2022-10-12T22:38:24.541Z,100.00
2022-10-12T22:47:58.228Z,99.18
2022-10-12T22:57:33.206Z,100.00
2022-10-12T23:07:07.494Z,100.00
2022-10-12T23:16:39.743Z,100.00
2022-10-12T23:26:13.671Z,100.00
2022-10-12T23:35:49.566Z,100.00
2022-10-12T23:45:22.720Z,100.00
2022-10-12T23:54:54.902Z,100.00
